sensor_id;sensor_type;location;lat;lon;timestamp;P1;durP1;ratioP1;P2;durP2;ratioP2
71253;SDS011;59019;47.638;18.966;2024-02-15T00:01:48;25.42;;;12.93;;
71253;SDS011;59019;47.638;18.966;2024-02-15T00:04:14;25.98;;;12.73;;
71253;SDS011;59019;47.638;18.966;2024-02-15T00:06:43;22.25;;;11.70;;
71253;SDS011;59019;47.638;18.966;2024-02-15T00:09:10;21.55;;;11.07;;
71253;SDS011;59019;47.638;18.966;2024-02-15T00:11:36;21.50;;;10.93;;
71253;SDS011;59019;47.638;18.966;2024-02-15T00:14:04;18.25;;;10.23;;
71253;SDS011;59019;47.638;18.966;2024-02-15T00:16:30;19.45;;;10.57;;
71253;SDS011;59019;47.638;18.966;2024-02-15T00:18:56;20.95;;;11.20;;
71253;SDS011;59019;47.638;18.966;2024-02-15T00:21:23;26.00;;;13.20;;
71253;SDS011;59019;47.638;18.966;2024-02-15T00:23:49;29.73;;;14.70;;
71253;SDS011;59019;47.638;18.966;2024-02-15T00:26:16;30.23;;;15.50;;
71253;SDS011;59019;47.638;18.966;2024-02-15T00:28:42;32.83;;;14.93;;
71253;SDS011;59019;47.638;18.966;2024-02-15T00:31:09;28.63;;;14.27;;
71253;SDS011;59019;47.638;18.966;2024-02-15T00:33:35;27.33;;;13.97;;
71253;SDS011;59019;47.638;18.966;2024-02-15T00:36:05;25.98;;;13.93;;
71253;SDS011;59019;47.638;18.966;2024-02-15T00:38:32;26.02;;;13.85;;
71253;SDS011;59019;47.638;18.966;2024-02-15T00:40:58;26.73;;;14.07;;
71253;SDS011;59019;47.638;18.966;2024-02-15T00:43:24;25.03;;;12.90;;
71253;SDS011;59019;47.638;18.966;2024-02-15T00:45:54;23.33;;;11.73;;
71253;SDS011;59019;47.638;18.966;2024-02-15T00:48:20;23.77;;;12.17;;
71253;SDS011;59019;47.638;18.966;2024-02-15T00:50:46;21.17;;;10.90;;
71253;SDS011;59019;47.638;18.966;2024-02-15T00:53:14;19.27;;;11.00;;
71253;SDS011;59019;47.638;18.966;2024-02-15T00:55:40;17.05;;;9.25;;
71253;SDS011;59019;47.638;18.966;2024-02-15T00:58:06;14.97;;;8.20;;
71253;SDS011;59019;47.638;18.966;2024-02-15T01:00:33;15.77;;;8.50;;
71253;SDS011;59019;47.638;18.966;2024-02-15T01:02:59;14.80;;;8.67;;
71253;SDS011;59019;47.638;18.966;2024-02-15T01:05:26;13.70;;;7.60;;
71253;SDS011;59019;47.638;18.966;2024-02-15T01:07:52;10.75;;;6.53;;
71253;SDS011;59019;47.638;18.966;2024-02-15T01:10:21;11.65;;;6.55;;
71253;SDS011;59019;47.638;18.966;2024-02-15T01:12:49;11.37;;;6.70;;
71253;SDS011;59019;47.638;18.966;2024-02-15T01:15:16;11.90;;;6.20;;
71253;SDS011;59019;47.638;18.966;2024-02-15T01:17:44;10.27;;;5.70;;
71253;SDS011;59019;47.638;18.966;2024-02-15T01:20:10;12.27;;;5.90;;
71253;SDS011;59019;47.638;18.966;2024-02-15T01:22:36;11.90;;;5.78;;
71253;SDS011;59019;47.638;18.966;2024-02-15T01:25:02;11.43;;;6.10;;
71253;SDS011;59019;47.638;18.966;2024-02-15T01:27:29;11.82;;;6.40;;
71253;SDS011;59019;47.638;18.966;2024-02-15T01:29:56;13.27;;;7.32;;
71253;SDS011;59019;47.638;18.966;2024-02-15T01:32:22;14.13;;;7.50;;
71253;SDS011;59019;47.638;18.966;2024-02-15T01:34:49;13.95;;;7.63;;
71253;SDS011;59019;47.638;18.966;2024-02-15T01:37:19;15.52;;;7.78;;
71253;SDS011;59019;47.638;18.966;2024-02-15T01:39:45;12.85;;;7.75;;
71253;SDS011;59019;47.638;18.966;2024-02-15T01:42:12;13.73;;;7.43;;
71253;SDS011;59019;47.638;18.966;2024-02-15T01:44:42;12.88;;;7.25;;
71253;SDS011;59019;47.638;18.966;2024-02-15T01:47:13;13.38;;;7.05;;
71253;SDS011;59019;47.638;18.966;2024-02-15T01:49:39;13.55;;;7.07;;
71253;SDS011;59019;47.638;18.966;2024-02-15T01:52:06;14.30;;;7.35;;
71253;SDS011;59019;47.638;18.966;2024-02-15T01:54:34;14.10;;;7.72;;
71253;SDS011;59019;47.638;18.966;2024-02-15T01:57:01;13.52;;;7.00;;
71253;SDS011;59019;47.638;18.966;2024-02-15T01:59:28;19.38;;;9.15;;
71253;SDS011;59019;47.638;18.966;2024-02-15T02:01:56;16.10;;;8.93;;
71253;SDS011;59019;47.638;18.966;2024-02-15T02:04:22;21.02;;;10.57;;
71253;SDS011;59019;47.638;18.966;2024-02-15T02:06:48;18.08;;;9.65;;
71253;SDS011;59019;47.638;18.966;2024-02-15T02:09:14;17.37;;;9.27;;
71253;SDS011;59019;47.638;18.966;2024-02-15T02:11:41;19.08;;;9.60;;
71253;SDS011;59019;47.638;18.966;2024-02-15T02:14:09;16.80;;;9.20;;
71253;SDS011;59019;47.638;18.966;2024-02-15T02:16:37;14.82;;;8.10;;
71253;SDS011;59019;47.638;18.966;2024-02-15T02:19:04;15.32;;;7.38;;
71253;SDS011;59019;47.638;18.966;2024-02-15T02:21:34;12.85;;;7.20;;
71253;SDS011;59019;47.638;18.966;2024-02-15T02:24:04;10.88;;;6.30;;
71253;SDS011;59019;47.638;18.966;2024-02-15T02:26:38;12.98;;;6.28;;
71253;SDS011;59019;47.638;18.966;2024-02-15T02:29:05;10.97;;;6.07;;
71253;SDS011;59019;47.638;18.966;2024-02-15T02:31:33;11.18;;;5.50;;
71253;SDS011;59019;47.638;18.966;2024-02-15T02:34:00;9.93;;;5.65;;
71253;SDS011;59019;47.638;18.966;2024-02-15T02:36:26;9.48;;;4.90;;
71253;SDS011;59019;47.638;18.966;2024-02-15T02:38:54;9.90;;;4.95;;
71253;SDS011;59019;47.638;18.966;2024-02-15T02:41:25;10.68;;;5.40;;
71253;SDS011;59019;47.638;18.966;2024-02-15T02:43:55;10.13;;;5.78;;
71253;SDS011;59019;47.638;18.966;2024-02-15T02:46:22;12.57;;;6.53;;
71253;SDS011;59019;47.638;18.966;2024-02-15T02:48:52;14.20;;;7.95;;
71253;SDS011;59019;47.638;18.966;2024-02-15T02:51:18;16.08;;;8.10;;
71253;SDS011;59019;47.638;18.966;2024-02-15T02:53:44;14.57;;;7.88;;
71253;SDS011;59019;47.638;18.966;2024-02-15T02:56:11;15.60;;;7.53;;
71253;SDS011;59019;47.638;18.966;2024-02-15T02:58:38;15.13;;;7.50;;
71253;SDS011;59019;47.638;18.966;2024-02-15T03:01:07;15.03;;;8.13;;
71253;SDS011;59019;47.638;18.966;2024-02-15T03:03:34;13.70;;;7.55;;
71253;SDS011;59019;47.638;18.966;2024-02-15T03:06:01;12.88;;;7.07;;
71253;SDS011;59019;47.638;18.966;2024-02-15T03:08:28;11.32;;;5.78;;
71253;SDS011;59019;47.638;18.966;2024-02-15T03:10:54;9.77;;;5.30;;
71253;SDS011;59019;47.638;18.966;2024-02-15T03:13:21;11.63;;;5.57;;
71253;SDS011;59019;47.638;18.966;2024-02-15T03:15:48;11.68;;;6.03;;
71253;SDS011;59019;47.638;18.966;2024-02-15T03:18:15;10.45;;;6.15;;
71253;SDS011;59019;47.638;18.966;2024-02-15T03:20:41;10.35;;;5.57;;
71253;SDS011;59019;47.638;18.966;2024-02-15T03:23:07;11.73;;;5.30;;
71253;SDS011;59019;47.638;18.966;2024-02-15T03:25:39;8.77;;;4.70;;
71253;SDS011;59019;47.638;18.966;2024-02-15T03:28:05;9.23;;;4.80;;
71253;SDS011;59019;47.638;18.966;2024-02-15T03:30:31;10.30;;;5.20;;
71253;SDS011;59019;47.638;18.966;2024-02-15T03:32:59;8.63;;;4.97;;
71253;SDS011;59019;47.638;18.966;2024-02-15T03:35:26;11.00;;;4.95;;
71253;SDS011;59019;47.638;18.966;2024-02-15T03:37:54;10.63;;;5.00;;
71253;SDS011;59019;47.638;18.966;2024-02-15T03:40:24;9.95;;;4.90;;
71253;SDS011;59019;47.638;18.966;2024-02-15T03:42:54;11.45;;;5.43;;
71253;SDS011;59019;47.638;18.966;2024-02-15T03:45:20;11.23;;;5.07;;
71253;SDS011;59019;47.638;18.966;2024-02-15T03:47:50;8.82;;;4.80;;
71253;SDS011;59019;47.638;18.966;2024-02-15T03:50:17;11.45;;;4.82;;
71253;SDS011;59019;47.638;18.966;2024-02-15T03:52:44;10.20;;;4.95;;
71253;SDS011;59019;47.638;18.966;2024-02-15T03:55:10;9.20;;;5.07;;
71253;SDS011;59019;47.638;18.966;2024-02-15T03:57:40;9.40;;;5.47;;
71253;SDS011;59019;47.638;18.966;2024-02-15T04:00:06;9.63;;;4.80;;
71253;SDS011;59019;47.638;18.966;2024-02-15T04:02:36;9.10;;;4.82;;
71253;SDS011;59019;47.638;18.966;2024-02-15T04:05:05;10.65;;;5.03;;
71253;SDS011;59019;47.638;18.966;2024-02-15T04:07:33;10.30;;;5.10;;
71253;SDS011;59019;47.638;18.966;2024-02-15T04:09:59;7.57;;;4.33;;
71253;SDS011;59019;47.638;18.966;2024-02-15T04:12:29;9.23;;;4.80;;
71253;SDS011;59019;47.638;18.966;2024-02-15T04:14:56;8.80;;;5.03;;
71253;SDS011;59019;47.638;18.966;2024-02-15T04:17:30;10.43;;;5.45;;
71253;SDS011;59019;47.638;18.966;2024-02-15T04:19:58;13.45;;;6.03;;
71253;SDS011;59019;47.638;18.966;2024-02-15T04:22:24;11.25;;;5.45;;
71253;SDS011;59019;47.638;18.966;2024-02-15T04:24:50;15.73;;;7.93;;
71253;SDS011;59019;47.638;18.966;2024-02-15T04:27:17;17.30;;;8.40;;
71253;SDS011;59019;47.638;18.966;2024-02-15T04:29:46;16.33;;;8.40;;
71253;SDS011;59019;47.638;18.966;2024-02-15T04:32:12;17.63;;;9.20;;
71253;SDS011;59019;47.638;18.966;2024-02-15T04:34:43;16.88;;;9.65;;
71253;SDS011;59019;47.638;18.966;2024-02-15T04:37:12;16.30;;;8.05;;
71253;SDS011;59019;47.638;18.966;2024-02-15T04:39:38;14.10;;;7.40;;
71253;SDS011;59019;47.638;18.966;2024-02-15T04:42:05;13.70;;;7.23;;
71253;SDS011;59019;47.638;18.966;2024-02-15T04:44:39;12.95;;;6.82;;
71253;SDS011;59019;47.638;18.966;2024-02-15T04:47:05;12.63;;;6.05;;
71253;SDS011;59019;47.638;18.966;2024-02-15T04:49:32;11.85;;;5.22;;
71253;SDS011;59019;47.638;18.966;2024-02-15T04:51:58;9.73;;;5.22;;
71253;SDS011;59019;47.638;18.966;2024-02-15T04:54:27;8.10;;;4.33;;
71253;SDS011;59019;47.638;18.966;2024-02-15T04:56:54;9.37;;;5.00;;
71253;SDS011;59019;47.638;18.966;2024-02-15T04:59:22;8.27;;;4.20;;
71253;SDS011;59019;47.638;18.966;2024-02-15T05:01:54;8.40;;;4.10;;
71253;SDS011;59019;47.638;18.966;2024-02-15T05:04:19;10.27;;;4.72;;
71253;SDS011;59019;47.638;18.966;2024-02-15T05:06:46;8.27;;;4.47;;
71253;SDS011;59019;47.638;18.966;2024-02-15T05:09:12;8.50;;;4.47;;
71253;SDS011;59019;47.638;18.966;2024-02-15T05:11:42;10.15;;;4.95;;
71253;SDS011;59019;47.638;18.966;2024-02-15T05:14:16;12.00;;;6.35;;
71253;SDS011;59019;47.638;18.966;2024-02-15T05:16:46;10.30;;;4.93;;
71253;SDS011;59019;47.638;18.966;2024-02-15T05:19:16;9.55;;;5.35;;
71253;SDS011;59019;47.638;18.966;2024-02-15T05:21:42;12.85;;;6.47;;
71253;SDS011;59019;47.638;18.966;2024-02-15T05:24:13;13.52;;;7.07;;
71253;SDS011;59019;47.638;18.966;2024-02-15T05:26:43;11.82;;;6.75;;
71253;SDS011;59019;47.638;18.966;2024-02-15T05:29:14;9.10;;;5.05;;
71253;SDS011;59019;47.638;18.966;2024-02-15T05:31:40;9.23;;;4.45;;
71253;SDS011;59019;47.638;18.966;2024-02-15T05:34:06;7.33;;;3.83;;
71253;SDS011;59019;47.638;18.966;2024-02-15T05:36:39;9.02;;;4.10;;
71253;SDS011;59019;47.638;18.966;2024-02-15T05:39:05;7.55;;;3.72;;
71253;SDS011;59019;47.638;18.966;2024-02-15T05:41:31;8.40;;;3.90;;
71253;SDS011;59019;47.638;18.966;2024-02-15T05:44:00;8.73;;;4.10;;
71253;SDS011;59019;47.638;18.966;2024-02-15T05:46:27;8.10;;;3.60;;
71253;SDS011;59019;47.638;18.966;2024-02-15T05:48:53;7.63;;;3.30;;
71253;SDS011;59019;47.638;18.966;2024-02-15T05:51:19;7.97;;;3.60;;
71253;SDS011;59019;47.638;18.966;2024-02-15T05:53:47;8.63;;;3.70;;
71253;SDS011;59019;47.638;18.966;2024-02-15T05:56:17;8.25;;;4.75;;
71253;SDS011;59019;47.638;18.966;2024-02-15T05:58:43;9.63;;;5.30;;
71253;SDS011;59019;47.638;18.966;2024-02-15T06:01:09;10.93;;;5.35;;
71253;SDS011;59019;47.638;18.966;2024-02-15T06:03:38;11.70;;;5.28;;
71253;SDS011;59019;47.638;18.966;2024-02-15T06:06:06;12.25;;;6.28;;
71253;SDS011;59019;47.638;18.966;2024-02-15T06:08:32;18.25;;;8.88;;
71253;SDS011;59019;47.638;18.966;2024-02-15T06:10:59;16.77;;;7.97;;
71253;SDS011;59019;47.638;18.966;2024-02-15T06:13:26;12.73;;;7.07;;
71253;SDS011;59019;47.638;18.966;2024-02-15T06:15:53;14.15;;;7.05;;
71253;SDS011;59019;47.638;18.966;2024-02-15T06:18:19;13.63;;;6.80;;
71253;SDS011;59019;47.638;18.966;2024-02-15T06:20:54;17.38;;;7.95;;
71253;SDS011;59019;47.638;18.966;2024-02-15T06:23:25;18.83;;;8.57;;
71253;SDS011;59019;47.638;18.966;2024-02-15T06:25:53;24.35;;;10.80;;
71253;SDS011;59019;47.638;18.966;2024-02-15T06:28:24;23.05;;;12.73;;
71253;SDS011;59019;47.638;18.966;2024-02-15T06:31:08;25.00;;;13.63;;
71253;SDS011;59019;47.638;18.966;2024-02-15T06:33:54;30.70;;;17.58;;
71253;SDS011;59019;47.638;18.966;2024-02-15T06:36:46;31.70;;;18.83;;
71253;SDS011;59019;47.638;18.966;2024-02-15T06:39:31;31.08;;;19.27;;
71253;SDS011;59019;47.638;18.966;2024-02-15T06:42:06;33.53;;;19.85;;
71253;SDS011;59019;47.638;18.966;2024-02-15T06:44:37;34.40;;;20.60;;
71253;SDS011;59019;47.638;18.966;2024-02-15T06:47:05;33.70;;;20.60;;
71253;SDS011;59019;47.638;18.966;2024-02-15T06:49:32;35.15;;;20.88;;
71253;SDS011;59019;47.638;18.966;2024-02-15T06:51:59;33.88;;;20.40;;
71253;SDS011;59019;47.638;18.966;2024-02-15T06:54:28;33.78;;;20.20;;
71253;SDS011;59019;47.638;18.966;2024-02-15T06:56:54;38.83;;;21.90;;
71253;SDS011;59019;47.638;18.966;2024-02-15T06:59:20;33.40;;;20.10;;
71253;SDS011;59019;47.638;18.966;2024-02-15T07:01:49;35.20;;;20.10;;
71253;SDS011;59019;47.638;18.966;2024-02-15T07:04:18;31.00;;;18.80;;
71253;SDS011;59019;47.638;18.966;2024-02-15T07:06:45;37.67;;;19.03;;
71253;SDS011;59019;47.638;18.966;2024-02-15T07:09:13;34.88;;;17.67;;
71253;SDS011;59019;47.638;18.966;2024-02-15T07:11:44;34.55;;;17.83;;
71253;SDS011;59019;47.638;18.966;2024-02-15T07:14:15;30.15;;;16.33;;
71253;SDS011;59019;47.638;18.966;2024-02-15T07:16:45;26.27;;;15.68;;
71253;SDS011;59019;47.638;18.966;2024-02-15T07:19:12;25.27;;;14.35;;
71253;SDS011;59019;47.638;18.966;2024-02-15T07:21:43;23.35;;;14.30;;
71253;SDS011;59019;47.638;18.966;2024-02-15T07:24:11;25.50;;;14.35;;
71253;SDS011;59019;47.638;18.966;2024-02-15T07:26:38;26.10;;;15.15;;
71253;SDS011;59019;47.638;18.966;2024-02-15T07:29:05;25.13;;;15.00;;
71253;SDS011;59019;47.638;18.966;2024-02-15T07:31:31;31.60;;;18.87;;
71253;SDS011;59019;47.638;18.966;2024-02-15T07:33:58;29.38;;;17.40;;
71253;SDS011;59019;47.638;18.966;2024-02-15T07:36:24;34.97;;;20.05;;
71253;SDS011;59019;47.638;18.966;2024-02-15T07:38:51;32.95;;;18.75;;
71253;SDS011;59019;47.638;18.966;2024-02-15T07:41:19;29.58;;;18.30;;
71253;SDS011;59019;47.638;18.966;2024-02-15T07:43:48;26.08;;;16.67;;
71253;SDS011;59019;47.638;18.966;2024-02-15T07:46:14;27.52;;;17.33;;
71253;SDS011;59019;47.638;18.966;2024-02-15T07:48:44;27.05;;;18.00;;
71253;SDS011;59019;47.638;18.966;2024-02-15T07:51:18;30.07;;;18.20;;
71253;SDS011;59019;47.638;18.966;2024-02-15T07:53:46;28.83;;;19.10;;
71253;SDS011;59019;47.638;18.966;2024-02-15T07:56:13;27.73;;;18.77;;
71253;SDS011;59019;47.638;18.966;2024-02-15T07:58:46;29.75;;;18.73;;
71253;SDS011;59019;47.638;18.966;2024-02-15T08:01:14;29.48;;;19.02;;
71253;SDS011;59019;47.638;18.966;2024-02-15T08:03:40;29.75;;;19.05;;
71253;SDS011;59019;47.638;18.966;2024-02-15T08:06:10;30.20;;;19.17;;
71253;SDS011;59019;47.638;18.966;2024-02-15T08:08:38;31.27;;;19.73;;
71253;SDS011;59019;47.638;18.966;2024-02-15T08:11:08;30.10;;;18.40;;
71253;SDS011;59019;47.638;18.966;2024-02-15T08:13:43;31.10;;;19.00;;
71253;SDS011;59019;47.638;18.966;2024-02-15T08:16:18;31.05;;;18.73;;
71253;SDS011;59019;47.638;18.966;2024-02-15T08:18:46;29.50;;;18.95;;
71253;SDS011;59019;47.638;18.966;2024-02-15T08:21:12;29.80;;;18.85;;
71253;SDS011;59019;47.638;18.966;2024-02-15T08:23:38;32.65;;;19.90;;
71253;SDS011;59019;47.638;18.966;2024-02-15T08:26:05;28.20;;;19.15;;
71253;SDS011;59019;47.638;18.966;2024-02-15T08:28:31;30.58;;;19.65;;
71253;SDS011;59019;47.638;18.966;2024-02-15T08:30:57;32.47;;;20.30;;
71253;SDS011;59019;47.638;18.966;2024-02-15T08:33:24;32.47;;;20.17;;
71253;SDS011;59019;47.638;18.966;2024-02-15T08:35:50;27.58;;;17.35;;
71253;SDS011;59019;47.638;18.966;2024-02-15T08:38:21;26.98;;;17.17;;
71253;SDS011;59019;47.638;18.966;2024-02-15T08:40:47;28.90;;;19.02;;
71253;SDS011;59019;47.638;18.966;2024-02-15T08:43:14;28.48;;;19.23;;
71253;SDS011;59019;47.638;18.966;2024-02-15T08:45:41;30.17;;;19.33;;
71253;SDS011;59019;47.638;18.966;2024-02-15T08:48:08;32.72;;;19.05;;
71253;SDS011;59019;47.638;18.966;2024-02-15T08:50:34;30.10;;;19.15;;
71253;SDS011;59019;47.638;18.966;2024-02-15T08:53:01;30.33;;;19.17;;
71253;SDS011;59019;47.638;18.966;2024-02-15T08:55:31;28.42;;;18.95;;
71253;SDS011;59019;47.638;18.966;2024-02-15T08:57:57;31.38;;;19.40;;
71253;SDS011;59019;47.638;18.966;2024-02-15T09:00:25;29.00;;;18.58;;
71253;SDS011;59019;47.638;18.966;2024-02-15T09:02:52;26.63;;;17.92;;
71253;SDS011;59019;47.638;18.966;2024-02-15T09:05:18;26.63;;;18.38;;
71253;SDS011;59019;47.638;18.966;2024-02-15T09:07:47;25.87;;;18.37;;
71253;SDS011;59019;47.638;18.966;2024-02-15T09:10:15;29.45;;;18.67;;
71253;SDS011;59019;47.638;18.966;2024-02-15T09:12:43;29.98;;;19.40;;
71253;SDS011;59019;47.638;18.966;2024-02-15T09:15:12;30.90;;;19.65;;
71253;SDS011;59019;47.638;18.966;2024-02-15T09:17:38;27.98;;;19.35;;
71253;SDS011;59019;47.638;18.966;2024-02-15T09:20:08;29.27;;;19.87;;
71253;SDS011;59019;47.638;18.966;2024-02-15T09:22:49;29.45;;;19.85;;
71253;SDS011;59019;47.638;18.966;2024-02-15T09:25:16;28.65;;;19.83;;
71253;SDS011;59019;47.638;18.966;2024-02-15T09:27:43;30.55;;;19.75;;
71253;SDS011;59019;47.638;18.966;2024-02-15T09:30:11;28.92;;;19.45;;
71253;SDS011;59019;47.638;18.966;2024-02-15T09:32:39;28.93;;;19.57;;
71253;SDS011;59019;47.638;18.966;2024-02-15T09:35:05;30.85;;;19.58;;
71253;SDS011;59019;47.638;18.966;2024-02-15T09:37:35;27.75;;;17.92;;
71253;SDS011;59019;47.638;18.966;2024-02-15T09:40:08;28.25;;;18.40;;
71253;SDS011;59019;47.638;18.966;2024-02-15T09:42:35;26.90;;;18.13;;
71253;SDS011;59019;47.638;18.966;2024-02-15T09:45:02;27.88;;;18.75;;
71253;SDS011;59019;47.638;18.966;2024-02-15T09:47:36;26.58;;;18.08;;
71253;SDS011;59019;47.638;18.966;2024-02-15T09:52:39;26.13;;;17.70;;
71253;SDS011;59019;47.638;18.966;2024-02-15T09:55:09;26.10;;;17.53;;
71253;SDS011;59019;47.638;18.966;2024-02-15T09:57:38;26.80;;;17.65;;
71253;SDS011;59019;47.638;18.966;2024-02-15T10:00:06;28.10;;;18.37;;
71253;SDS011;59019;47.638;18.966;2024-02-15T10:02:43;27.58;;;18.25;;
71253;SDS011;59019;47.638;18.966;2024-02-15T10:05:10;28.47;;;17.80;;
71253;SDS011;59019;47.638;18.966;2024-02-15T10:07:38;27.27;;;18.05;;
71253;SDS011;59019;47.638;18.966;2024-02-15T10:10:19;26.70;;;17.83;;
71253;SDS011;59019;47.638;18.966;2024-02-15T10:12:51;26.93;;;17.60;;
71253;SDS011;59019;47.638;18.966;2024-02-15T10:18:04;26.77;;;16.73;;
71253;SDS011;59019;47.638;18.966;2024-02-15T10:20:35;26.10;;;17.98;;
71253;SDS011;59019;47.638;18.966;2024-02-15T10:23:15;26.58;;;17.25;;
71253;SDS011;59019;47.638;18.966;2024-02-15T10:25:42;26.75;;;17.92;;
71253;SDS011;59019;47.638;18.966;2024-02-15T10:28:13;25.98;;;17.02;;
71253;SDS011;59019;47.638;18.966;2024-02-15T10:30:46;26.23;;;17.80;;
71253;SDS011;59019;47.638;18.966;2024-02-15T10:33:26;26.30;;;16.67;;
71253;SDS011;59019;47.638;18.966;2024-02-15T10:36:06;24.30;;;16.50;;
71253;SDS011;59019;47.638;18.966;2024-02-15T10:38:39;27.83;;;17.13;;
71253;SDS011;59019;47.638;18.966;2024-02-15T10:41:06;25.02;;;16.67;;
71253;SDS011;59019;47.638;18.966;2024-02-15T10:43:35;26.98;;;16.98;;
71253;SDS011;59019;47.638;18.966;2024-02-15T10:46:05;24.65;;;16.15;;
71253;SDS011;59019;47.638;18.966;2024-02-15T10:48:35;26.85;;;16.45;;
71253;SDS011;59019;47.638;18.966;2024-02-15T10:51:03;25.92;;;17.60;;
71253;SDS011;59019;47.638;18.966;2024-02-15T10:53:32;28.27;;;17.75;;
71253;SDS011;59019;47.638;18.966;2024-02-15T10:56:17;27.13;;;18.15;;
71253;SDS011;59019;47.638;18.966;2024-02-15T10:58:54;25.53;;;16.80;;
71253;SDS011;59019;47.638;18.966;2024-02-15T11:01:49;24.93;;;17.43;;
71253;SDS011;59019;47.638;18.966;2024-02-15T11:04:20;25.80;;;17.03;;
71253;SDS011;59019;47.638;18.966;2024-02-15T11:06:51;25.88;;;17.45;;
71253;SDS011;59019;47.638;18.966;2024-02-15T11:09:21;27.33;;;17.67;;
71253;SDS011;59019;47.638;18.966;2024-02-15T11:11:48;28.13;;;18.30;;
71253;SDS011;59019;47.638;18.966;2024-02-15T11:16:54;27.00;;;17.58;;
71253;SDS011;59019;47.638;18.966;2024-02-15T11:19:41;27.30;;;17.52;;
71253;SDS011;59019;47.638;18.966;2024-02-15T11:22:12;25.83;;;17.65;;
71253;SDS011;59019;47.638;18.966;2024-02-15T11:24:50;27.20;;;17.70;;
71253;SDS011;59019;47.638;18.966;2024-02-15T11:27:24;25.67;;;17.38;;
71253;SDS011;59019;47.638;18.966;2024-02-15T11:29:54;25.85;;;17.13;;
71253;SDS011;59019;47.638;18.966;2024-02-15T11:32:49;26.67;;;17.70;;
71253;SDS011;59019;47.638;18.966;2024-02-15T11:35:25;23.85;;;16.20;;
71253;SDS011;59019;47.638;18.966;2024-02-15T11:37:55;24.38;;;15.75;;
71253;SDS011;59019;47.638;18.966;2024-02-15T11:43:07;25.33;;;16.70;;
71253;SDS011;59019;47.638;18.966;2024-02-15T11:45:36;26.48;;;16.77;;
71253;SDS011;59019;47.638;18.966;2024-02-15T11:48:07;25.23;;;15.95;;
71253;SDS011;59019;47.638;18.966;2024-02-15T11:50:36;24.83;;;16.20;;
71253;SDS011;59019;47.638;18.966;2024-02-15T11:53:03;26.30;;;16.05;;
71253;SDS011;59019;47.638;18.966;2024-02-15T11:55:31;24.73;;;16.80;;
71253;SDS011;59019;47.638;18.966;2024-02-15T11:57:58;26.52;;;16.30;;
71253;SDS011;59019;47.638;18.966;2024-02-15T12:00:34;26.52;;;17.45;;
71253;SDS011;59019;47.638;18.966;2024-02-15T12:03:20;26.00;;;16.67;;
71253;SDS011;59019;47.638;18.966;2024-02-15T12:06:06;26.00;;;17.10;;
71253;SDS011;59019;47.638;18.966;2024-02-15T12:08:53;24.15;;;16.30;;
71253;SDS011;59019;47.638;18.966;2024-02-15T12:11:39;25.38;;;16.27;;
71253;SDS011;59019;47.638;18.966;2024-02-15T12:14:24;27.65;;;16.17;;
71253;SDS011;59019;47.638;18.966;2024-02-15T12:17:12;23.75;;;15.48;;
71253;SDS011;59019;47.638;18.966;2024-02-15T12:19:59;25.33;;;15.40;;
71253;SDS011;59019;47.638;18.966;2024-02-15T12:22:35;24.63;;;15.07;;
71253;SDS011;59019;47.638;18.966;2024-02-15T12:25:13;22.53;;;14.83;;
71253;SDS011;59019;47.638;18.966;2024-02-15T12:27:41;22.83;;;14.90;;
71253;SDS011;59019;47.638;18.966;2024-02-15T12:30:14;23.33;;;14.90;;
71253;SDS011;59019;47.638;18.966;2024-02-15T12:33:10;22.83;;;14.23;;
71253;SDS011;59019;47.638;18.966;2024-02-15T12:35:40;23.27;;;15.07;;
71253;SDS011;59019;47.638;18.966;2024-02-15T12:38:07;22.33;;;15.30;;
71253;SDS011;59019;47.638;18.966;2024-02-15T12:40:35;23.65;;;15.32;;
71253;SDS011;59019;47.638;18.966;2024-02-15T12:43:04;24.63;;;15.80;;
71253;SDS011;59019;47.638;18.966;2024-02-15T12:45:31;24.80;;;15.98;;
71253;SDS011;59019;47.638;18.966;2024-02-15T12:48:05;24.77;;;15.70;;
71253;SDS011;59019;47.638;18.966;2024-02-15T12:50:32;24.65;;;15.93;;
71253;SDS011;59019;47.638;18.966;2024-02-15T12:52:59;27.73;;;16.23;;
71253;SDS011;59019;47.638;18.966;2024-02-15T12:55:32;25.98;;;16.40;;
71253;SDS011;59019;47.638;18.966;2024-02-15T12:58:03;24.10;;;16.10;;
71253;SDS011;59019;47.638;18.966;2024-02-15T13:00:34;23.63;;;16.20;;
71253;SDS011;59019;47.638;18.966;2024-02-15T13:03:04;23.13;;;15.95;;
71253;SDS011;59019;47.638;18.966;2024-02-15T13:05:38;24.43;;;15.83;;
71253;SDS011;59019;47.638;18.966;2024-02-15T13:08:05;25.07;;;16.07;;
71253;SDS011;59019;47.638;18.966;2024-02-15T13:10:35;23.63;;;15.85;;
71253;SDS011;59019;47.638;18.966;2024-02-15T13:13:02;24.85;;;16.27;;
71253;SDS011;59019;47.638;18.966;2024-02-15T13:15:29;25.47;;;15.77;;
71253;SDS011;59019;47.638;18.966;2024-02-15T13:17:59;25.63;;;16.90;;
71253;SDS011;59019;47.638;18.966;2024-02-15T13:20:28;23.48;;;15.75;;
71253;SDS011;59019;47.638;18.966;2024-02-15T13:23:03;23.73;;;16.60;;
71253;SDS011;59019;47.638;18.966;2024-02-15T13:25:56;26.33;;;17.27;;
71253;SDS011;59019;47.638;18.966;2024-02-15T13:28:23;23.90;;;16.50;;
71253;SDS011;59019;47.638;18.966;2024-02-15T13:30:50;26.10;;;17.05;;
71253;SDS011;59019;47.638;18.966;2024-02-15T13:33:19;26.30;;;17.33;;
71253;SDS011;59019;47.638;18.966;2024-02-15T13:35:47;27.88;;;17.40;;
71253;SDS011;59019;47.638;18.966;2024-02-15T13:38:14;27.00;;;17.67;;
71253;SDS011;59019;47.638;18.966;2024-02-15T13:40:48;26.30;;;17.60;;
71253;SDS011;59019;47.638;18.966;2024-02-15T13:43:17;33.47;;;17.42;;
71253;SDS011;59019;47.638;18.966;2024-02-15T13:45:44;24.02;;;16.10;;
71253;SDS011;59019;47.638;18.966;2024-02-15T13:48:10;22.65;;;14.82;;
71253;SDS011;59019;47.638;18.966;2024-02-15T13:50:40;24.88;;;15.85;;
71253;SDS011;59019;47.638;18.966;2024-02-15T13:53:06;23.23;;;15.10;;
71253;SDS011;59019;47.638;18.966;2024-02-15T13:55:34;27.92;;;16.50;;
71253;SDS011;59019;47.638;18.966;2024-02-15T13:58:02;20.00;;;13.60;;
71253;SDS011;59019;47.638;18.966;2024-02-15T14:00:29;23.83;;;14.60;;
71253;SDS011;59019;47.638;18.966;2024-02-15T14:02:59;24.13;;;15.07;;
71253;SDS011;59019;47.638;18.966;2024-02-15T14:05:29;24.13;;;14.90;;
71253;SDS011;59019;47.638;18.966;2024-02-15T14:07:56;22.95;;;15.23;;
71253;SDS011;59019;47.638;18.966;2024-02-15T14:10:30;21.53;;;14.60;;
71253;SDS011;59019;47.638;18.966;2024-02-15T14:12:58;23.40;;;14.43;;
71253;SDS011;59019;47.638;18.966;2024-02-15T14:15:25;24.42;;;15.60;;
71253;SDS011;59019;47.638;18.966;2024-02-15T14:17:51;34.95;;;23.13;;
71253;SDS011;59019;47.638;18.966;2024-02-15T14:20:17;34.92;;;21.40;;
71253;SDS011;59019;47.638;18.966;2024-02-15T14:22:45;32.47;;;22.27;;
71253;SDS011;59019;47.638;18.966;2024-02-15T14:25:21;29.98;;;21.05;;
71253;SDS011;59019;47.638;18.966;2024-02-15T14:27:47;83.15;;;50.40;;
71253;SDS011;59019;47.638;18.966;2024-02-15T14:30:14;136.90;;;73.93;;
71253;SDS011;59019;47.638;18.966;2024-02-15T14:32:58;290.67;;;128.57;;
71253;SDS011;59019;47.638;18.966;2024-02-15T14:35:27;53.77;;;32.23;;
71253;SDS011;59019;47.638;18.966;2024-02-15T14:37:55;45.28;;;30.08;;
71253;SDS011;59019;47.638;18.966;2024-02-15T14:40:27;37.00;;;25.92;;